Time;durP1;ratioP1;P1;durP2;ratioP2;P2;SDS_P1;SDS_P2;PMS_P1;PMS_P2;Temp;Humidity;BMP_temperature;BMP_pressure;BME280_temperature;BME280_humidity;BME280_pressure;Samples;Min_cycle;Max_cycle;Signal;HPM_P1;HPM_P2
2021/03/17 00:13:59;;;;;;;7.20;4.40;;;;;;;18.62;34.13;101324.59;31674547;28;20027;-64
2021/03/17 00:29:00;;;;;;;6.60;4.28;;;;;;;18.67;33.96;101321.63;31704328;28;20290;-64
2021/03/17 00:44:01;;;;;;;7.77;4.50;;;;;;;18.68;34.26;101328.56;31643625;28;20038;-64
2021/03/17 00:59:02;;;;;;;5.47;3.83;;;;;;;18.62;34.48;101314.06;31707686;28;20294;-63
2021/03/17 01:14:03;;;;;;;7.40;4.30;;;;;;;18.58;34.61;101303.88;31680998;28;20058;-64
2021/03/17 01:29:04;;;;;;;7.82;3.80;;;;;;;18.55;34.76;101319.88;31645417;28;20039;-63
2021/03/17 01:44:05;;;;;;;5.40;3.70;;;;;;;18.53;34.87;101312.13;31681968;28;20034;-62
2021/03/17 01:59:06;;;;;;;6.03;3.55;;;;;;;18.56;34.84;101321.59;31692556;28;20504;-64
2021/03/17 02:14:35;;;;;;;6.40;3.95;;;;;;;18.53;34.90;101325.28;31651538;28;20374;-64
2021/03/17 02:29:53;;;;;;;6.47;3.63;;;;;;;18.50;35.10;101317.59;31666845;28;20031;-63
2021/03/17 02:44:58;;;;;;;6.43;3.80;;;;;;;18.49;35.32;101328.25;31635398;28;20032;-64
2021/03/17 02:59:59;;;;;;;4.93;3.30;;;;;;;18.44;35.14;101320.72;31641949;28;20048;-64
2021/03/17 03:15:00;;;;;;;4.80;3.33;;;;;;;18.38;35.53;101319.34;31653226;28;20045;-63
2021/03/17 03:30:10;;;;;;;5.00;3.53;;;;;;;18.33;35.44;101328.53;31664319;28;20454;-63
2021/03/17 03:45:13;;;;;;;5.88;3.65;;;;;;;18.30;35.61;101344.53;31702473;28;20024;-63
2021/03/17 04:00:19;;;;;;;6.43;3.17;;;;;;;18.24;35.70;101348.47;31698233;28;20044;-64
2021/03/17 04:15:20;;;;;;;5.22;3.42;;;;;;;18.21;35.69;101359.22;31704342;28;20093;-64
2021/03/17 04:30:22;;;;;;;4.47;2.80;;;;;;;18.15;35.51;101355.22;31663980;28;20024;-62
2021/03/17 04:45:22;;;;;;;4.78;2.88;;;;;;;18.13;35.67;101366.81;31660609;28;20441;-64
2021/03/17 05:00:24;;;;;;;5.82;2.92;;;;;;;18.08;36.00;101374.22;31652199;28;20052;-64
2021/03/17 05:15:25;;;;;;;4.50;2.78;;;;;;;18.04;35.90;101394.63;31680235;28;20077;-64
2021/03/17 05:30:26;;;;;;;4.90;2.47;;;;;;;18.02;35.85;101408.81;31681230;27;20035;-64
2021/03/17 05:45:27;;;;;;;5.35;3.08;;;;;;;17.97;36.21;101414.41;31720442;27;20284;-64
2021/03/17 06:00:28;;;;;;;4.45;2.60;;;;;;;17.93;36.01;101426.09;31738928;27;20061;-63
2021/03/17 06:15:30;;;;;;;11.70;3.75;;;;;;;17.91;36.73;101444.63;31726604;28;20043;-64
2021/03/17 06:30:31;;;;;;;8.77;3.45;;;;;;;17.90;37.26;101445.56;31706901;27;20036;-66
2021/03/17 06:45:40;;;;;;;6.78;2.90;;;;;;;17.88;37.47;101467.66;31727770;27;20023;-64
2021/03/17 07:00:41;;;;;;;8.55;2.85;;;;;;;17.87;37.73;101471.25;31716055;27;20044;-63
2021/03/17 07:15:42;;;;;;;8.13;3.33;;;;;;;17.87;37.66;101471.25;31680982;28;20027;-64
2021/03/17 07:30:43;;;;;;;6.93;2.80;;;;;;;17.84;37.89;101477.53;31733460;27;20392;-64
2021/03/17 07:45:44;;;;;;;19.07;12.67;;;;;;;17.35;31.48;101475.56;31706593;28;20289;-63
2021/03/17 08:00:45;;;;;;;15.18;10.43;;;;;;;15.91;37.55;101494.22;31696209;28;20613;-61
2021/03/17 08:15:46;;;;;;;13.45;8.35;;;;;;;16.39;34.98;101511.47;31727352;28;20027;-63
2021/03/17 08:30:48;;;;;;;10.70;7.25;;;;;;;16.64;34.24;101516.03;31664263;28;20036;-61
2021/03/17 08:45:49;;;;;;;10.38;6.65;;;;;;;16.98;33.87;101529.69;31733413;28;20444;-60
2021/03/17 09:01:00;;;;;;;10.90;6.68;;;;;;;17.12;33.42;101535.72;31695897;28;20027;-62
2021/03/17 09:16:02;;;;;;;5.32;3.10;;;;;;;17.83;35.29;101548.66;31713821;28;20485;-64
2021/03/17 09:31:07;;;;;;;4.50;2.40;;;;;;;18.28;35.06;101552.56;31662678;28;20039;-63
2021/03/17 09:46:23;;;;;;;4.22;2.60;;;;;;;18.62;34.99;101560.69;31730929;28;20505;-63
2021/03/17 10:01:25;;;;;;;3.92;2.53;;;;;;;18.84;35.12;101567.97;31702463;28;20020;-64
2021/03/17 10:16:26;;;;;;;5.10;2.55;;;;;;;19.03;34.89;101572.75;31684865;28;20093;-62
2021/03/17 10:31:32;;;;;;;4.20;2.40;;;;;;;19.37;34.51;101572.94;31709140;28;20031;-63
2021/03/17 10:46:53;;;;;;;4.93;2.47;;;;;;;19.49;33.84;101574.63;31693964;28;20852;-63
2021/03/17 11:02:23;;;;;;;3.90;2.60;;;;;;;19.68;33.59;101574.13;31707088;28;20343;-64
2021/03/17 11:17:24;;;;;;;4.28;2.63;;;;;;;19.78;33.57;101563.75;31710125;28;20101;-64
2021/03/17 11:32:29;;;;;;;6.73;3.37;;;;;;;19.74;33.85;101567.56;31620280;28;20054;-64
2021/03/17 11:47:30;;;;;;;6.85;4.50;;;;;;;19.75;32.85;101571.91;31658716;28;20648;-64
2021/03/17 12:02:31;;;;;;;6.07;4.00;;;;;;;19.83;33.41;101564.25;31683281;28;20111;-63
2021/03/17 12:17:32;;;;;;;7.68;4.15;;;;;;;19.90;33.38;101568.09;31680712;28;20347;-62
2021/03/17 12:32:33;;;;;;;7.33;4.43;;;;;;;19.91;33.35;101567.16;31672677;28;20029;-61
2021/03/17 12:47:34;;;;;;;6.97;4.47;;;;;;;19.88;33.36;101565.59;31601496;28;20301;-59
2021/03/17 13:02:35;;;;;;;7.20;5.10;;;;;;;19.92;33.23;101567.97;31629039;28;20354;-62
2021/03/17 13:17:36;;;;;;;8.07;5.80;;;;;;;20.05;33.18;101566.94;31755936;28;20561;-62
2021/03/17 13:32:37;;;;;;;8.05;6.35;;;;;;;20.07;31.50;101586.13;31698930;28;20289;-62
2021/03/17 13:47:38;;;;;;;10.57;8.50;;;;;;;20.03;31.66;101636.63;31660568;28;20044;-61
2021/03/17 14:02:40;;;;;;;10.02;8.38;;;;;;;20.04;31.59;101646.19;31693400;28;20473;-59
2021/03/17 14:17:42;;;;;;;11.35;9.43;;;;;;;20.09;31.60;101634.34;31692114;28;20565;-61
2021/03/17 14:32:43;;;;;;;13.52;9.30;;;;;;;20.14;31.29;101634.00;31718324;28;20077;-61
2021/03/17 14:47:44;;;;;;;13.33;9.47;;;;;;;20.22;31.44;101641.31;31698487;28;20039;-64
2021/03/17 15:02:45;;;;;;;11.40;8.67;;;;;;;20.28;31.41;101643.50;31709741;28;20277;-64
2021/03/17 15:17:46;;;;;;;10.97;8.83;;;;;;;20.27;31.39;101650.59;31722130;28;20297;-63
2021/03/17 15:32:47;;;;;;;14.10;11.07;;;;;;;20.27;31.46;101666.44;31701025;28;20290;-64
2021/03/17 15:47:48;;;;;;;18.13;11.67;;;;;;;20.28;31.64;101673.38;31742076;28;20080;-65
2021/03/17 16:02:49;;;;;;;12.97;9.90;;;;;;;20.33;32.78;101675.66;31716657;28;20654;-61
2021/03/17 16:17:50;;;;;;;13.60;10.17;;;;;;;20.35;32.57;101680.84;31718135;28;20303;-62
2021/03/17 16:32:51;;;;;;;12.43;10.32;;;;;;;20.35;32.62;101694.88;31708475;28;20294;-62
2021/03/17 16:47:52;;;;;;;13.67;10.43;;;;;;;20.34;32.61;101695.84;31726961;28;20386;-62
2021/03/17 17:02:53;;;;;;;14.10;11.03;;;;;;;20.34;32.69;101697.63;31735953;28;20289;-63
2021/03/17 17:17:54;;;;;;;12.67;10.27;;;;;;;20.36;32.71;101722.94;31735483;28;20297;-63
2021/03/17 17:32:55;;;;;;;13.97;10.40;;;;;;;20.34;33.31;101731.94;31713009;28;20305;-64
2021/03/17 17:47:56;;;;;;;11.50;8.85;;;;;;;20.28;33.82;101739.38;31716981;28;20323;-56
2021/03/17 18:02:57;;;;;;;14.38;9.50;;;;;;;20.58;33.47;101756.53;31698343;28;20474;-60
2021/03/17 18:17:58;;;;;;;15.27;8.57;;;;;;;20.42;33.90;101759.47;31713242;28;20037;-65
2021/03/17 18:32:59;;;;;;;13.03;8.77;;;;;;;20.25;34.13;101767.81;31730400;28;20288;-65
2021/03/17 18:48:00;;;;;;;11.15;7.30;;;;;;;19.84;35.08;101764.63;31693001;28;20671;-64
2021/03/17 19:03:03;;;;;;;13.70;8.23;;;;;;;19.73;35.33;101779.56;31718150;28;20100;-63
2021/03/17 19:18:04;;;;;;;9.80;7.03;;;;;;;19.64;35.22;101786.28;31680294;28;20048;-59
2021/03/17 19:33:05;;;;;;;11.23;7.43;;;;;;;19.50;35.24;101779.38;31736845;28;20046;-62
2021/03/17 19:48:08;;;;;;;11.07;7.28;;;;;;;19.38;35.58;101772.34;31740415;28;20044;-60
2021/03/17 20:03:09;;;;;;;15.20;11.32;;;;;;;18.69;35.15;101796.34;31687722;27;20028;-59
2021/03/17 20:18:10;;;;;;;18.70;12.82;;;;;;;18.93;35.50;101808.84;31695729;27;20462;-59
2021/03/17 20:33:19;;;;;;;17.75;11.75;;;;;;;18.97;35.45;101800.63;31704282;28;20526;-58
2021/03/17 20:48:20;;;;;;;16.23;11.30;;;;;;;18.95;35.31;101805.16;31686755;27;20096;-59
2021/03/17 21:03:21;;;;;;;18.27;10.73;;;;;;;18.85;35.20;101806.69;31699984;28;20030;-60
2021/03/17 21:18:22;;;;;;;15.05;9.02;;;;;;;18.70;34.92;101824.34;31727494;28;20035;-60
2021/03/17 21:33:23;;;;;;;13.13;8.80;;;;;;;18.60;34.92;101834.66;31721691;28;20027;-59
2021/03/17 21:48:24;;;;;;;7.78;5.30;;;;;;;15.93;30.80;101842.03;31662623;27;20035;-60
2021/03/17 22:03:25;;;;;;;8.05;4.78;;;;;;;17.11;34.37;101841.41;31688710;28;20654;-58
2021/03/17 22:18:33;;;;;;;7.00;5.10;;;;;;;17.67;34.09;101838.84;31696421;28;20038;-57
2021/03/17 22:33:34;;;;;;;7.13;4.65;;;;;;;17.88;34.39;101835.84;31676485;28;20358;-57
2021/03/17 22:48:35;;;;;;;7.57;5.03;;;;;;;17.95;34.38;101826.63;31697392;28;20040;-58
2021/03/17 23:03:36;;;;;;;7.75;5.15;;;;;;;17.97;34.78;101816.84;31713735;28;20085;-59
2021/03/17 23:18:43;;;;;;;7.25;4.60;;;;;;;17.83;32.95;101822.16;31715633;27;20039;-54
2021/03/17 23:33:51;;;;;;;6.20;4.20;;;;;;;17.79;34.25;101824.94;31708820;28;20035;-58
2021/03/17 23:48:52;;;;;;;6.47;4.13;;;;;;;17.72;34.49;101815.75;31704111;28;20048;-58
